sensor_id;sensor_type;location;lat;lon;timestamp;P1;durP1;ratioP1;P2;durP2;ratioP2
19814;SDS011;10067;53.092;8.800;2023-06-22T00:01:20;12.38;;;10.20;;
19814;SDS011;10067;53.092;8.800;2023-06-22T00:03:47;12.13;;;9.35;;
19814;SDS011;10067;53.092;8.800;2023-06-22T00:06:13;13.52;;;10.52;;
19814;SDS011;10067;53.092;8.800;2023-06-22T00:08:40;11.68;;;10.15;;
19814;SDS011;10067;53.092;8.800;2023-06-22T00:11:06;11.85;;;10.57;;
19814;SDS011;10067;53.092;8.800;2023-06-22T00:13:33;10.80;;;9.65;;
19814;SDS011;10067;53.092;8.800;2023-06-22T00:16:00;15.98;;;10.38;;
19814;SDS011;10067;53.092;8.800;2023-06-22T00:18:27;11.75;;;9.98;;
19814;SDS011;10067;53.092;8.800;2023-06-22T00:20:55;13.85;;;10.65;;
19814;SDS011;10067;53.092;8.800;2023-06-22T00:23:23;13.77;;;10.38;;
19814;SDS011;10067;53.092;8.800;2023-06-22T00:25:50;11.75;;;10.45;;
19814;SDS011;10067;53.092;8.800;2023-06-22T00:28:16;12.48;;;11.10;;
19814;SDS011;10067;53.092;8.800;2023-06-22T00:30:43;13.80;;;11.05;;
19814;SDS011;10067;53.092;8.800;2023-06-22T00:33:10;15.25;;;11.13;;
19814;SDS011;10067;53.092;8.800;2023-06-22T00:35:37;12.15;;;10.23;;
19814;SDS011;10067;53.092;8.800;2023-06-22T00:38:06;14.98;;;11.05;;
19814;SDS011;10067;53.092;8.800;2023-06-22T00:40:33;11.98;;;10.63;;
19814;SDS011;10067;53.092;8.800;2023-06-22T00:42:59;13.45;;;10.80;;
19814;SDS011;10067;53.092;8.800;2023-06-22T00:45:26;13.05;;;10.85;;
19814;SDS011;10067;53.092;8.800;2023-06-22T00:47:53;13.43;;;10.50;;
19814;SDS011;10067;53.092;8.800;2023-06-22T00:50:20;16.25;;;10.98;;
19814;SDS011;10067;53.092;8.800;2023-06-22T00:52:49;13.82;;;11.43;;
19814;SDS011;10067;53.092;8.800;2023-06-22T00:55:17;13.02;;;10.88;;
19814;SDS011;10067;53.092;8.800;2023-06-22T00:57:43;13.55;;;10.95;;
19814;SDS011;10067;53.092;8.800;2023-06-22T01:00:11;14.90;;;11.25;;
19814;SDS011;10067;53.092;8.800;2023-06-22T01:02:43;14.65;;;10.68;;
19814;SDS011;10067;53.092;8.800;2023-06-22T01:05:11;15.55;;;11.45;;
19814;SDS011;10067;53.092;8.800;2023-06-22T01:07:39;14.82;;;11.73;;
19814;SDS011;10067;53.092;8.800;2023-06-22T01:10:08;17.92;;;11.80;;
19814;SDS011;10067;53.092;8.800;2023-06-22T01:12:38;17.98;;;11.98;;
19814;SDS011;10067;53.092;8.800;2023-06-22T01:15:07;14.52;;;11.00;;
19814;SDS011;10067;53.092;8.800;2023-06-22T01:17:35;15.27;;;11.48;;
19814;SDS011;10067;53.092;8.800;2023-06-22T01:20:01;14.55;;;12.38;;
19814;SDS011;10067;53.092;8.800;2023-06-22T01:22:31;14.07;;;12.15;;
19814;SDS011;10067;53.092;8.800;2023-06-22T01:25:00;17.50;;;13.77;;
19814;SDS011;10067;53.092;8.800;2023-06-22T01:27:36;16.65;;;13.00;;
19814;SDS011;10067;53.092;8.800;2023-06-22T01:30:08;18.50;;;13.70;;
19814;SDS011;10067;53.092;8.800;2023-06-22T01:32:36;19.20;;;13.25;;
19814;SDS011;10067;53.092;8.800;2023-06-22T01:35:04;18.50;;;13.73;;
19814;SDS011;10067;53.092;8.800;2023-06-22T01:37:31;14.88;;;13.27;;
19814;SDS011;10067;53.092;8.800;2023-06-22T01:39:58;20.05;;;14.55;;
19814;SDS011;10067;53.092;8.800;2023-06-22T01:42:25;17.95;;;14.20;;
19814;SDS011;10067;53.092;8.800;2023-06-22T01:44:51;17.77;;;13.98;;
19814;SDS011;10067;53.092;8.800;2023-06-22T01:47:19;16.17;;;14.25;;
19814;SDS011;10067;53.092;8.800;2023-06-22T01:49:46;20.05;;;15.32;;
19814;SDS011;10067;53.092;8.800;2023-06-22T01:52:12;16.83;;;14.07;;
19814;SDS011;10067;53.092;8.800;2023-06-22T01:54:39;20.48;;;15.48;;
19814;SDS011;10067;53.092;8.800;2023-06-22T01:57:05;16.63;;;14.15;;
19814;SDS011;10067;53.092;8.800;2023-06-22T01:59:32;16.42;;;14.40;;
19814;SDS011;10067;53.092;8.800;2023-06-22T02:02:01;17.23;;;13.80;;
19814;SDS011;10067;53.092;8.800;2023-06-22T02:04:31;18.35;;;15.13;;
19814;SDS011;10067;53.092;8.800;2023-06-22T02:06:59;21.48;;;14.73;;
19814;SDS011;10067;53.092;8.800;2023-06-22T02:09:27;19.40;;;15.60;;
19814;SDS011;10067;53.092;8.800;2023-06-22T02:11:55;17.83;;;15.63;;
19814;SDS011;10067;53.092;8.800;2023-06-22T02:14:22;18.20;;;15.43;;
19814;SDS011;10067;53.092;8.800;2023-06-22T02:16:49;23.27;;;17.05;;
19814;SDS011;10067;53.092;8.800;2023-06-22T02:19:16;18.25;;;15.55;;
19814;SDS011;10067;53.092;8.800;2023-06-22T02:21:44;19.80;;;15.25;;
19814;SDS011;10067;53.092;8.800;2023-06-22T02:24:11;18.40;;;15.65;;
19814;SDS011;10067;53.092;8.800;2023-06-22T02:26:37;19.05;;;16.13;;
19814;SDS011;10067;53.092;8.800;2023-06-22T02:29:04;20.60;;;15.88;;
19814;SDS011;10067;53.092;8.800;2023-06-22T02:31:31;18.92;;;16.48;;
19814;SDS011;10067;53.092;8.800;2023-06-22T02:33:57;20.83;;;17.15;;
19814;SDS011;10067;53.092;8.800;2023-06-22T02:36:24;20.17;;;17.15;;
19814;SDS011;10067;53.092;8.800;2023-06-22T02:38:53;23.08;;;18.05;;
19814;SDS011;10067;53.092;8.800;2023-06-22T02:41:21;21.13;;;17.65;;
19814;SDS011;10067;53.092;8.800;2023-06-22T02:43:47;19.75;;;16.30;;
19814;SDS011;10067;53.092;8.800;2023-06-22T02:46:14;19.65;;;16.67;;
19814;SDS011;10067;53.092;8.800;2023-06-22T02:48:40;24.38;;;18.05;;
19814;SDS011;10067;53.092;8.800;2023-06-22T02:51:07;22.15;;;17.92;;
19814;SDS011;10067;53.092;8.800;2023-06-22T02:53:33;24.77;;;18.55;;
19814;SDS011;10067;53.092;8.800;2023-06-22T02:56:01;24.45;;;18.50;;
19814;SDS011;10067;53.092;8.800;2023-06-22T02:58:28;21.95;;;18.25;;
19814;SDS011;10067;53.092;8.800;2023-06-22T03:00:54;22.33;;;18.90;;
19814;SDS011;10067;53.092;8.800;2023-06-22T03:03:21;23.60;;;18.85;;
19814;SDS011;10067;53.092;8.800;2023-06-22T03:05:49;25.45;;;20.13;;
19814;SDS011;10067;53.092;8.800;2023-06-22T03:08:17;24.98;;;19.48;;
19814;SDS011;10067;53.092;8.800;2023-06-22T03:10:44;24.67;;;19.05;;
19814;SDS011;10067;53.092;8.800;2023-06-22T03:13:12;25.08;;;20.58;;
19814;SDS011;10067;53.092;8.800;2023-06-22T03:15:38;23.90;;;20.80;;
19814;SDS011;10067;53.092;8.800;2023-06-22T03:18:04;25.05;;;20.30;;
19814;SDS011;10067;53.092;8.800;2023-06-22T03:20:31;25.77;;;20.38;;
19814;SDS011;10067;53.092;8.800;2023-06-22T03:22:58;23.23;;;20.60;;
19814;SDS011;10067;53.092;8.800;2023-06-22T03:25:25;25.30;;;20.83;;
19814;SDS011;10067;53.092;8.800;2023-06-22T03:27:51;26.17;;;20.30;;
19814;SDS011;10067;53.092;8.800;2023-06-22T03:30:19;23.83;;;19.27;;
19814;SDS011;10067;53.092;8.800;2023-06-22T03:32:46;23.27;;;20.48;;
19814;SDS011;10067;53.092;8.800;2023-06-22T03:35:12;25.95;;;21.98;;
19814;SDS011;10067;53.092;8.800;2023-06-22T03:37:40;25.25;;;20.73;;
19814;SDS011;10067;53.092;8.800;2023-06-22T03:40:07;25.38;;;21.52;;
19814;SDS011;10067;53.092;8.800;2023-06-22T03:42:34;28.70;;;21.48;;
19814;SDS011;10067;53.092;8.800;2023-06-22T03:45:00;30.38;;;22.67;;
19814;SDS011;10067;53.092;8.800;2023-06-22T03:47:29;25.42;;;22.48;;
19814;SDS011;10067;53.092;8.800;2023-06-22T03:49:56;26.73;;;21.98;;
19814;SDS011;10067;53.092;8.800;2023-06-22T03:52:22;26.60;;;22.23;;
19814;SDS011;10067;53.092;8.800;2023-06-22T03:54:50;28.02;;;22.05;;
19814;SDS011;10067;53.092;8.800;2023-06-22T03:57:17;26.73;;;20.98;;
19814;SDS011;10067;53.092;8.800;2023-06-22T03:59:43;26.40;;;21.73;;
19814;SDS011;10067;53.092;8.800;2023-06-22T04:02:10;26.00;;;22.10;;
19814;SDS011;10067;53.092;8.800;2023-06-22T04:04:38;24.63;;;21.45;;
19814;SDS011;10067;53.092;8.800;2023-06-22T04:07:04;28.38;;;22.65;;
19814;SDS011;10067;53.092;8.800;2023-06-22T04:09:31;28.33;;;20.20;;
19814;SDS011;10067;53.092;8.800;2023-06-22T04:11:58;27.25;;;21.23;;
19814;SDS011;10067;53.092;8.800;2023-06-22T04:14:24;26.90;;;23.23;;
19814;SDS011;10067;53.092;8.800;2023-06-22T04:16:51;28.17;;;21.95;;
19814;SDS011;10067;53.092;8.800;2023-06-22T04:19:21;32.53;;;22.85;;
19814;SDS011;10067;53.092;8.800;2023-06-22T04:21:52;25.08;;;22.02;;
19814;SDS011;10067;53.092;8.800;2023-06-22T04:24:18;27.10;;;22.02;;
19814;SDS011;10067;53.092;8.800;2023-06-22T04:26:45;28.58;;;23.10;;
19814;SDS011;10067;53.092;8.800;2023-06-22T04:29:13;28.95;;;23.75;;
19814;SDS011;10067;53.092;8.800;2023-06-22T04:31:54;26.40;;;22.33;;
19814;SDS011;10067;53.092;8.800;2023-06-22T04:34:22;28.55;;;24.00;;
19814;SDS011;10067;53.092;8.800;2023-06-22T04:36:59;29.25;;;24.10;;
19814;SDS011;10067;53.092;8.800;2023-06-22T04:39:25;32.67;;;24.92;;
19814;SDS011;10067;53.092;8.800;2023-06-22T04:41:52;32.08;;;24.55;;
19814;SDS011;10067;53.092;8.800;2023-06-22T04:44:20;29.30;;;24.13;;
19814;SDS011;10067;53.092;8.800;2023-06-22T04:46:50;29.48;;;23.90;;
19814;SDS011;10067;53.092;8.800;2023-06-22T04:49:19;31.15;;;24.92;;
19814;SDS011;10067;53.092;8.800;2023-06-22T04:51:45;28.63;;;24.15;;
19814;SDS011;10067;53.092;8.800;2023-06-22T04:54:14;31.52;;;24.40;;
19814;SDS011;10067;53.092;8.800;2023-06-22T04:56:43;30.85;;;22.80;;
19814;SDS011;10067;53.092;8.800;2023-06-22T04:59:11;31.92;;;25.77;;
19814;SDS011;10067;53.092;8.800;2023-06-22T05:01:38;32.60;;;24.98;;
19814;SDS011;10067;53.092;8.800;2023-06-22T05:04:07;29.50;;;23.20;;
19814;SDS011;10067;53.092;8.800;2023-06-22T05:06:34;33.47;;;26.08;;
19814;SDS011;10067;53.092;8.800;2023-06-22T05:09:00;31.20;;;24.25;;
19814;SDS011;10067;53.092;8.800;2023-06-22T05:11:29;29.52;;;24.38;;
19814;SDS011;10067;53.092;8.800;2023-06-22T05:13:56;35.17;;;25.30;;
19814;SDS011;10067;53.092;8.800;2023-06-22T05:16:24;31.38;;;23.60;;
19814;SDS011;10067;53.092;8.800;2023-06-22T05:18:51;30.90;;;24.77;;
19814;SDS011;10067;53.092;8.800;2023-06-22T05:21:21;32.72;;;23.05;;
19814;SDS011;10067;53.092;8.800;2023-06-22T05:23:50;29.70;;;23.45;;
19814;SDS011;10067;53.092;8.800;2023-06-22T05:26:17;33.33;;;25.92;;
19814;SDS011;10067;53.092;8.800;2023-06-22T05:28:45;31.83;;;25.23;;
19814;SDS011;10067;53.092;8.800;2023-06-22T05:31:12;29.73;;;22.60;;
19814;SDS011;10067;53.092;8.800;2023-06-22T05:33:39;28.88;;;23.10;;
19814;SDS011;10067;53.092;8.800;2023-06-22T05:36:05;33.28;;;24.35;;
19814;SDS011;10067;53.092;8.800;2023-06-22T05:38:32;27.60;;;22.25;;
19814;SDS011;10067;53.092;8.800;2023-06-22T05:40:58;28.85;;;23.08;;
19814;SDS011;10067;53.092;8.800;2023-06-22T05:43:25;28.33;;;21.42;;
19814;SDS011;10067;53.092;8.800;2023-06-22T05:45:53;24.55;;;20.65;;
19814;SDS011;10067;53.092;8.800;2023-06-22T05:48:19;26.83;;;21.15;;
19814;SDS011;10067;53.092;8.800;2023-06-22T05:50:45;28.17;;;22.58;;
19814;SDS011;10067;53.092;8.800;2023-06-22T05:53:12;26.45;;;20.83;;
19814;SDS011;10067;53.092;8.800;2023-06-22T05:55:38;25.05;;;20.02;;
19814;SDS011;10067;53.092;8.800;2023-06-22T05:58:04;25.80;;;21.33;;
19814;SDS011;10067;53.092;8.800;2023-06-22T06:00:31;23.08;;;18.73;;
19814;SDS011;10067;53.092;8.800;2023-06-22T06:02:58;23.05;;;17.75;;
19814;SDS011;10067;53.092;8.800;2023-06-22T06:05:28;23.42;;;18.30;;
19814;SDS011;10067;53.092;8.800;2023-06-22T06:07:54;20.67;;;17.20;;
19814;SDS011;10067;53.092;8.800;2023-06-22T06:10:20;21.98;;;16.50;;
19814;SDS011;10067;53.092;8.800;2023-06-22T06:12:47;25.15;;;18.83;;
19814;SDS011;10067;53.092;8.800;2023-06-22T06:15:13;23.38;;;17.95;;
19814;SDS011;10067;53.092;8.800;2023-06-22T06:17:45;22.20;;;18.13;;
19814;SDS011;10067;53.092;8.800;2023-06-22T06:20:13;19.02;;;15.45;;
19814;SDS011;10067;53.092;8.800;2023-06-22T06:22:39;21.02;;;16.63;;
19814;SDS011;10067;53.092;8.800;2023-06-22T06:25:06;26.83;;;18.60;;
19814;SDS011;10067;53.092;8.800;2023-06-22T06:27:32;20.42;;;16.45;;
19814;SDS011;10067;53.092;8.800;2023-06-22T06:29:58;26.55;;;18.48;;
19814;SDS011;10067;53.092;8.800;2023-06-22T06:32:25;28.50;;;18.00;;
19814;SDS011;10067;53.092;8.800;2023-06-22T06:34:51;22.85;;;17.30;;
19814;SDS011;10067;53.092;8.800;2023-06-22T06:37:19;26.60;;;17.27;;
19814;SDS011;10067;53.092;8.800;2023-06-22T06:39:45;22.42;;;18.65;;
19814;SDS011;10067;53.092;8.800;2023-06-22T06:42:11;26.45;;;17.38;;
19814;SDS011;10067;53.092;8.800;2023-06-22T06:44:38;20.95;;;15.77;;
19814;SDS011;10067;53.092;8.800;2023-06-22T06:47:04;23.50;;;15.80;;
19814;SDS011;10067;53.092;8.800;2023-06-22T06:49:30;25.73;;;16.38;;
19814;SDS011;10067;53.092;8.800;2023-06-22T06:51:57;21.92;;;16.42;;
19814;SDS011;10067;53.092;8.800;2023-06-22T06:54:24;20.95;;;16.70;;
19814;SDS011;10067;53.092;8.800;2023-06-22T06:56:52;20.63;;;15.88;;
19814;SDS011;10067;53.092;8.800;2023-06-22T06:59:18;26.10;;;16.98;;
19814;SDS011;10067;53.092;8.800;2023-06-22T07:01:45;17.83;;;14.27;;
19814;SDS011;10067;53.092;8.800;2023-06-22T07:04:13;20.02;;;14.65;;
19814;SDS011;10067;53.092;8.800;2023-06-22T07:06:40;20.65;;;15.70;;
19814;SDS011;10067;53.092;8.800;2023-06-22T07:09:07;18.85;;;13.30;;
19814;SDS011;10067;53.092;8.800;2023-06-22T07:11:35;20.20;;;13.82;;
19814;SDS011;10067;53.092;8.800;2023-06-22T07:14:01;19.77;;;14.90;;
19814;SDS011;10067;53.092;8.800;2023-06-22T07:16:28;20.10;;;12.75;;
19814;SDS011;10067;53.092;8.800;2023-06-22T07:18:55;20.00;;;15.75;;
19814;SDS011;10067;53.092;8.800;2023-06-22T07:21:21;15.73;;;11.55;;
19814;SDS011;10067;53.092;8.800;2023-06-22T07:23:48;16.52;;;12.40;;
19814;SDS011;10067;53.092;8.800;2023-06-22T07:26:14;19.67;;;11.82;;
19814;SDS011;10067;53.092;8.800;2023-06-22T07:28:43;16.40;;;11.05;;
19814;SDS011;10067;53.092;8.800;2023-06-22T07:31:09;13.65;;;11.18;;
19814;SDS011;10067;53.092;8.800;2023-06-22T07:33:36;16.33;;;10.70;;
19814;SDS011;10067;53.092;8.800;2023-06-22T07:36:02;14.05;;;10.52;;
19814;SDS011;10067;53.092;8.800;2023-06-22T07:38:33;14.68;;;10.38;;
19814;SDS011;10067;53.092;8.800;2023-06-22T07:40:59;17.98;;;12.27;;
19814;SDS011;10067;53.092;8.800;2023-06-22T07:43:25;16.95;;;10.85;;
19814;SDS011;10067;53.092;8.800;2023-06-22T07:45:53;14.13;;;10.57;;
19814;SDS011;10067;53.092;8.800;2023-06-22T07:48:20;14.13;;;10.25;;
19814;SDS011;10067;53.092;8.800;2023-06-22T07:50:47;11.98;;;8.93;;
19814;SDS011;10067;53.092;8.800;2023-06-22T07:53:13;13.98;;;10.70;;
19814;SDS011;10067;53.092;8.800;2023-06-22T07:55:40;15.55;;;9.80;;
19814;SDS011;10067;53.092;8.800;2023-06-22T07:58:06;12.93;;;7.88;;
19814;SDS011;10067;53.092;8.800;2023-06-22T08:00:33;10.77;;;7.68;;
19814;SDS011;10067;53.092;8.800;2023-06-22T08:03:00;11.18;;;8.73;;
19814;SDS011;10067;53.092;8.800;2023-06-22T08:05:28;14.80;;;7.90;;
19814;SDS011;10067;53.092;8.800;2023-06-22T08:07:55;7.82;;;6.40;;
19814;SDS011;10067;53.092;8.800;2023-06-22T08:10:21;14.57;;;10.18;;
19814;SDS011;10067;53.092;8.800;2023-06-22T08:12:48;11.27;;;7.18;;
19814;SDS011;10067;53.092;8.800;2023-06-22T08:15:14;9.80;;;7.47;;
19814;SDS011;10067;53.092;8.800;2023-06-22T08:17:40;11.23;;;8.70;;
19814;SDS011;10067;53.092;8.800;2023-06-22T08:20:09;12.63;;;7.35;;
19814;SDS011;10067;53.092;8.800;2023-06-22T08:22:36;9.55;;;6.95;;
19814;SDS011;10067;53.092;8.800;2023-06-22T08:25:03;8.75;;;6.72;;
19814;SDS011;10067;53.092;8.800;2023-06-22T08:27:30;10.40;;;6.47;;
19814;SDS011;10067;53.092;8.800;2023-06-22T08:29:58;8.38;;;6.18;;
19814;SDS011;10067;53.092;8.800;2023-06-22T08:32:25;10.07;;;7.30;;
19814;SDS011;10067;53.092;8.800;2023-06-22T08:34:52;10.35;;;6.88;;
19814;SDS011;10067;53.092;8.800;2023-06-22T08:37:21;9.85;;;6.45;;
19814;SDS011;10067;53.092;8.800;2023-06-22T08:39:50;8.50;;;6.80;;
19814;SDS011;10067;53.092;8.800;2023-06-22T08:42:16;9.93;;;7.95;;
19814;SDS011;10067;53.092;8.800;2023-06-22T08:44:42;10.32;;;6.47;;
19814;SDS011;10067;53.092;8.800;2023-06-22T08:47:12;8.60;;;5.32;;
19814;SDS011;10067;53.092;8.800;2023-06-22T08:49:39;9.77;;;5.57;;
19814;SDS011;10067;53.092;8.800;2023-06-22T08:52:08;14.77;;;5.15;;
19814;SDS011;10067;53.092;8.800;2023-06-22T08:54:36;9.70;;;5.85;;
19814;SDS011;10067;53.092;8.800;2023-06-22T08:57:02;8.88;;;6.80;;
19814;SDS011;10067;53.092;8.800;2023-06-22T08:59:29;11.82;;;5.38;;
19814;SDS011;10067;53.092;8.800;2023-06-22T09:01:55;9.77;;;6.20;;
19814;SDS011;10067;53.092;8.800;2023-06-22T09:04:21;9.20;;;4.90;;
19814;SDS011;10067;53.092;8.800;2023-06-22T09:06:48;10.55;;;5.45;;
19814;SDS011;10067;53.092;8.800;2023-06-22T09:09:15;9.90;;;5.15;;
19814;SDS011;10067;53.092;8.800;2023-06-22T09:11:43;10.80;;;5.63;;
19814;SDS011;10067;53.092;8.800;2023-06-22T09:14:09;6.28;;;4.85;;
19814;SDS011;10067;53.092;8.800;2023-06-22T09:16:36;4.63;;;3.90;;
19814;SDS011;10067;53.092;8.800;2023-06-22T09:19:02;7.05;;;4.80;;
19814;SDS011;10067;53.092;8.800;2023-06-22T09:21:29;6.63;;;3.80;;
19814;SDS011;10067;53.092;8.800;2023-06-22T09:23:56;8.02;;;4.18;;
19814;SDS011;10067;53.092;8.800;2023-06-22T09:26:22;6.50;;;4.00;;
19814;SDS011;10067;53.092;8.800;2023-06-22T09:28:50;8.88;;;5.50;;
19814;SDS011;10067;53.092;8.800;2023-06-22T09:31:16;7.03;;;4.25;;
19814;SDS011;10067;53.092;8.800;2023-06-22T09:33:50;7.60;;;4.97;;
19814;SDS011;10067;53.092;8.800;2023-06-22T09:36:16;6.63;;;5.00;;
19814;SDS011;10067;53.092;8.800;2023-06-22T09:38:43;8.40;;;4.63;;
19814;SDS011;10067;53.092;8.800;2023-06-22T09:41:09;7.72;;;5.43;;
19814;SDS011;10067;53.092;8.800;2023-06-22T09:43:35;10.77;;;6.40;;
19814;SDS011;10067;53.092;8.800;2023-06-22T09:46:03;8.45;;;6.10;;
19814;SDS011;10067;53.092;8.800;2023-06-22T09:48:29;15.32;;;7.15;;
19814;SDS011;10067;53.092;8.800;2023-06-22T09:50:56;5.95;;;4.97;;
19814;SDS011;10067;53.092;8.800;2023-06-22T09:53:22;9.13;;;5.38;;
19814;SDS011;10067;53.092;8.800;2023-06-22T09:55:49;9.13;;;5.93;;
19814;SDS011;10067;53.092;8.800;2023-06-22T09:58:15;9.40;;;5.60;;
19814;SDS011;10067;53.092;8.800;2023-06-22T10:00:41;13.68;;;7.07;;
19814;SDS011;10067;53.092;8.800;2023-06-22T10:03:09;7.85;;;5.45;;
19814;SDS011;10067;53.092;8.800;2023-06-22T10:05:35;11.73;;;6.45;;
19814;SDS011;10067;53.092;8.800;2023-06-22T10:08:02;7.47;;;5.18;;
19814;SDS011;10067;53.092;8.800;2023-06-22T10:10:28;11.95;;;6.10;;
19814;SDS011;10067;53.092;8.800;2023-06-22T10:12:55;9.48;;;6.57;;
19814;SDS011;10067;53.092;8.800;2023-06-22T10:15:22;7.10;;;5.60;;
19814;SDS011;10067;53.092;8.800;2023-06-22T10:17:49;9.43;;;5.78;;
19814;SDS011;10067;53.092;8.800;2023-06-22T10:20:17;10.55;;;6.20;;
19814;SDS011;10067;53.092;8.800;2023-06-22T10:22:44;9.57;;;6.32;;
19814;SDS011;10067;53.092;8.800;2023-06-22T10:25:11;7.35;;;5.95;;
19814;SDS011;10067;53.092;8.800;2023-06-22T10:27:38;10.45;;;5.30;;
19814;SDS011;10067;53.092;8.800;2023-06-22T10:30:06;11.07;;;5.35;;
19814;SDS011;10067;53.092;8.800;2023-06-22T10:32:32;7.10;;;4.63;;
19814;SDS011;10067;53.092;8.800;2023-06-22T10:35:00;6.95;;;5.75;;
19814;SDS011;10067;53.092;8.800;2023-06-22T10:37:28;7.22;;;5.47;;
19814;SDS011;10067;53.092;8.800;2023-06-22T10:39:54;6.65;;;5.22;;
19814;SDS011;10067;53.092;8.800;2023-06-22T10:42:20;7.18;;;5.63;;
19814;SDS011;10067;53.092;8.800;2023-06-22T10:44:47;8.00;;;5.25;;
19814;SDS011;10067;53.092;8.800;2023-06-22T10:47:13;7.40;;;4.80;;
19814;SDS011;10067;53.092;8.800;2023-06-22T10:49:39;10.75;;;5.10;;
19814;SDS011;10067;53.092;8.800;2023-06-22T10:52:06;5.70;;;4.95;;
19814;SDS011;10067;53.092;8.800;2023-06-22T10:54:35;9.95;;;6.35;;
19814;SDS011;10067;53.092;8.800;2023-06-22T10:57:01;8.85;;;5.47;;
19814;SDS011;10067;53.092;8.800;2023-06-22T10:59:28;5.85;;;4.60;;
19814;SDS011;10067;53.092;8.800;2023-06-22T11:01:55;9.25;;;4.85;;
19814;SDS011;10067;53.092;8.800;2023-06-22T11:04:21;6.82;;;6.13;;
19814;SDS011;10067;53.092;8.800;2023-06-22T11:06:47;12.82;;;5.70;;
19814;SDS011;10067;53.092;8.800;2023-06-22T11:09:14;6.85;;;4.85;;
19814;SDS011;10067;53.092;8.800;2023-06-22T11:11:45;6.32;;;5.30;;
19814;SDS011;10067;53.092;8.800;2023-06-22T11:14:11;6.63;;;5.45;;
19814;SDS011;10067;53.092;8.800;2023-06-22T11:16:37;7.13;;;5.13;;
19814;SDS011;10067;53.092;8.800;2023-06-22T11:19:04;8.50;;;5.70;;
19814;SDS011;10067;53.092;8.800;2023-06-22T11:21:31;6.20;;;5.03;;
19814;SDS011;10067;53.092;8.800;2023-06-22T11:23:58;7.43;;;5.85;;
19814;SDS011;10067;53.092;8.800;2023-06-22T11:26:24;10.43;;;4.85;;
19814;SDS011;10067;53.092;8.800;2023-06-22T11:28:53;7.85;;;5.35;;
19814;SDS011;10067;53.092;8.800;2023-06-22T11:31:20;6.50;;;5.18;;
19814;SDS011;10067;53.092;8.800;2023-06-22T11:33:46;8.88;;;5.95;;
19814;SDS011;10067;53.092;8.800;2023-06-22T11:36:13;6.18;;;5.40;;
19814;SDS011;10067;53.092;8.800;2023-06-22T11:38:40;8.23;;;5.07;;
19814;SDS011;10067;53.092;8.800;2023-06-22T11:41:07;7.75;;;5.85;;
19814;SDS011;10067;53.092;8.800;2023-06-22T11:43:33;6.45;;;5.45;;
19814;SDS011;10067;53.092;8.800;2023-06-22T11:46:02;5.95;;;5.03;;
19814;SDS011;10067;53.092;8.800;2023-06-22T11:48:29;7.63;;;5.30;;
19814;SDS011;10067;53.092;8.800;2023-06-22T11:50:56;7.03;;;5.43;;
19814;SDS011;10067;53.092;8.800;2023-06-22T11:53:23;5.75;;;5.15;;
19814;SDS011;10067;53.092;8.800;2023-06-22T11:55:50;6.70;;;5.35;;
19814;SDS011;10067;53.092;8.800;2023-06-22T11:58:16;5.82;;;5.32;;
19814;SDS011;10067;53.092;8.800;2023-06-22T12:00:42;6.57;;;5.93;;
19814;SDS011;10067;53.092;8.800;2023-06-22T12:03:11;7.75;;;4.93;;
19814;SDS011;10067;53.092;8.800;2023-06-22T12:05:39;7.22;;;5.43;;
19814;SDS011;10067;53.092;8.800;2023-06-22T12:08:06;7.30;;;4.55;;
19814;SDS011;10067;53.092;8.800;2023-06-22T12:10:32;6.53;;;5.63;;
19814;SDS011;10067;53.092;8.800;2023-06-22T12:12:59;5.53;;;4.88;;
19814;SDS011;10067;53.092;8.800;2023-06-22T12:15:26;7.40;;;5.30;;
19814;SDS011;10067;53.092;8.800;2023-06-22T12:17:52;6.07;;;4.47;;
19814;SDS011;10067;53.092;8.800;2023-06-22T12:20:20;7.28;;;5.07;;
19814;SDS011;10067;53.092;8.800;2023-06-22T12:22:46;5.65;;;4.40;;
19814;SDS011;10067;53.092;8.800;2023-06-22T12:25:16;8.50;;;5.45;;
19814;SDS011;10067;53.092;8.800;2023-06-22T12:27:42;8.18;;;5.38;;
19814;SDS011;10067;53.092;8.800;2023-06-22T12:30:09;6.20;;;4.63;;
19814;SDS011;10067;53.092;8.800;2023-06-22T12:32:35;6.32;;;5.72;;
19814;SDS011;10067;53.092;8.800;2023-06-22T12:35:02;5.90;;;5.28;;
19814;SDS011;10067;53.092;8.800;2023-06-22T12:37:29;6.95;;;5.00;;
19814;SDS011;10067;53.092;8.800;2023-06-22T12:39:57;5.68;;;4.90;;
19814;SDS011;10067;53.092;8.800;2023-06-22T12:42:23;7.30;;;4.90;;
19814;SDS011;10067;53.092;8.800;2023-06-22T12:44:51;5.85;;;4.88;;
19814;SDS011;10067;53.092;8.800;2023-06-22T12:47:17;14.32;;;5.78;;
19814;SDS011;10067;53.092;8.800;2023-06-22T12:49:45;7.28;;;5.25;;
19814;SDS011;10067;53.092;8.800;2023-06-22T12:52:11;6.72;;;5.07;;
19814;SDS011;10067;53.092;8.800;2023-06-22T12:54:39;6.82;;;5.60;;
19814;SDS011;10067;53.092;8.800;2023-06-22T12:57:06;6.38;;;5.07;;
19814;SDS011;10067;53.092;8.800;2023-06-22T12:59:32;7.00;;;5.20;;
19814;SDS011;10067;53.092;8.800;2023-06-22T13:01:58;6.47;;;5.00;;
19814;SDS011;10067;53.092;8.800;2023-06-22T13:04:25;10.70;;;5.78;;
19814;SDS011;10067;53.092;8.800;2023-06-22T13:06:51;7.82;;;5.95;;
19814;SDS011;10067;53.092;8.800;2023-06-22T13:09:18;7.20;;;5.22;;
19814;SDS011;10067;53.092;8.800;2023-06-22T13:11:46;13.07;;;5.28;;
19814;SDS011;10067;53.092;8.800;2023-06-22T13:14:12;6.85;;;5.07;;
19814;SDS011;10067;53.092;8.800;2023-06-22T13:16:41;7.55;;;5.70;;
19814;SDS011;10067;53.092;8.800;2023-06-22T13:19:07;7.95;;;6.80;;
19814;SDS011;10067;53.092;8.800;2023-06-22T13:21:34;10.27;;;7.50;;
19814;SDS011;10067;53.092;8.800;2023-06-22T13:24:00;9.05;;;7.63;;
19814;SDS011;10067;53.092;8.800;2023-06-22T13:26:27;10.27;;;6.38;;
19814;SDS011;10067;53.092;8.800;2023-06-22T13:28:55;6.80;;;6.07;;
19814;SDS011;10067;53.092;8.800;2023-06-22T13:31:22;7.32;;;5.97;;
19814;SDS011;10067;53.092;8.800;2023-06-22T13:33:48;8.50;;;6.90;;
19814;SDS011;10067;53.092;8.800;2023-06-22T13:36:17;6.93;;;6.13;;
19814;SDS011;10067;53.092;8.800;2023-06-22T13:38:43;9.40;;;6.28;;
19814;SDS011;10067;53.092;8.800;2023-06-22T13:41:10;11.05;;;6.60;;
19814;SDS011;10067;53.092;8.800;2023-06-22T13:43:37;6.70;;;6.07;;
19814;SDS011;10067;53.092;8.800;2023-06-22T13:46:04;6.90;;;6.20;;
19814;SDS011;10067;53.092;8.800;2023-06-22T13:48:31;6.97;;;6.00;;
19814;SDS011;10067;53.092;8.800;2023-06-22T13:50:57;6.07;;;5.47;;
19814;SDS011;10067;53.092;8.800;2023-06-22T13:53:24;10.23;;;6.68;;
19814;SDS011;10067;53.092;8.800;2023-06-22T13:55:51;10.05;;;6.97;;
19814;SDS011;10067;53.092;8.800;2023-06-22T13:58:17;7.18;;;6.22;;
19814;SDS011;10067;53.092;8.800;2023-06-22T14:00:44;8.73;;;6.30;;
19814;SDS011;10067;53.092;8.800;2023-06-22T14:03:12;8.73;;;6.60;;
19814;SDS011;10067;53.092;8.800;2023-06-22T14:05:41;7.38;;;6.22;;
19814;SDS011;10067;53.092;8.800;2023-06-22T14:08:07;9.00;;;6.47;;
19814;SDS011;10067;53.092;8.800;2023-06-22T14:10:34;7.95;;;5.72;;
19814;SDS011;10067;53.092;8.800;2023-06-22T14:13:00;16.38;;;9.82;;
19814;SDS011;10067;53.092;8.800;2023-06-22T14:15:27;12.07;;;8.27;;
19814;SDS011;10067;53.092;8.800;2023-06-22T14:17:53;7.38;;;6.30;;
19814;SDS011;10067;53.092;8.800;2023-06-22T14:20:21;9.55;;;7.57;;
19814;SDS011;10067;53.092;8.800;2023-06-22T14:22:47;10.80;;;9.00;;
19814;SDS011;10067;53.092;8.800;2023-06-22T14:25:14;18.65;;;10.63;;
19814;SDS011;10067;53.092;8.800;2023-06-22T14:27:40;10.52;;;8.63;;
19814;SDS011;10067;53.092;8.800;2023-06-22T14:30:07;25.63;;;17.33;;